createdAt,value
2018-10-03T00:01:40.523Z,99967.11
2018-10-03T00:04:11.381Z,99936.58
2018-10-03T00:06:42.765Z,99940.97
2018-10-03T00:09:13.542Z,99940.97
2018-10-03T00:11:44.448Z,99943.62
2018-10-03T00:14:15.585Z,99947.92
2018-10-03T00:16:47.177Z,99955.27
2018-10-03T00:19:18.043Z,99958.70
2018-10-03T00:21:48.847Z,99941.66
2018-10-03T00:24:19.574Z,99945.83
2018-10-03T00:26:50.453Z,99942.00
2018-10-03T00:29:21.339Z,99950.82
2018-10-03T00:31:52.794Z,99937.31
2018-10-03T00:34:23.554Z,99932.70
2018-10-03T00:36:54.415Z,99924.77
2018-10-03T00:39:25.669Z,99913.27
2018-10-03T00:41:56.637Z,99909.47
2018-10-03T00:44:27.365Z,99907.08
2018-10-03T00:46:58.686Z,99906.05
2018-10-03T00:49:29.393Z,99899.28
2018-10-03T00:52:03.121Z,99891.52
2018-10-03T00:54:33.379Z,99882.47
2018-10-03T00:57:03.250Z,99883.19
2018-10-03T00:59:33.738Z,99894.23
2018-10-03T01:02:04.689Z,99899.09
2018-10-03T01:04:35.469Z,99900.61
2018-10-03T01:07:06.940Z,99903.47
2018-10-03T01:09:37.486Z,99898.69
2018-10-03T01:12:08.529Z,99898.86
2018-10-03T01:14:39.444Z,99888.69
2018-10-03T01:17:10.687Z,99889.47
2018-10-03T01:19:41.458Z,99889.84
2018-10-03T01:22:12.397Z,99888.55
2018-10-03T01:24:43.646Z,99885.73
2018-10-03T01:27:15.084Z,99873.49
2018-10-03T01:29:45.625Z,99884.08
2018-10-03T01:32:16.532Z,99863.42
2018-10-03T01:34:47.294Z,99883.02
2018-10-03T01:37:19.227Z,99883.02
2018-10-03T01:39:49.713Z,99876.84
2018-10-03T01:42:20.616Z,99872.51
2018-10-03T01:44:51.342Z,99874.17
2018-10-03T01:47:22.710Z,99875.49
2018-10-03T01:49:53.481Z,99865.92
2018-10-03T01:52:24.367Z,99864.44
2018-10-03T01:54:57.492Z,99862.41
2018-10-03T01:57:27.486Z,99865.92
2018-10-03T01:59:57.226Z,99870.67
2018-10-03T02:02:28.673Z,99883.94
2018-10-03T02:04:59.443Z,99883.46
2018-10-03T02:07:30.701Z,99870.91
2018-10-03T02:10:01.730Z,99875.90
2018-10-03T02:12:32.514Z,99885.02
2018-10-03T02:15:03.801Z,99883.89
2018-10-03T02:17:34.654Z,99887.55
2018-10-03T02:20:06.561Z,99884.54
2018-10-03T02:22:36.459Z,99880.41
2018-10-03T02:25:08.262Z,99886.20
2018-10-03T02:27:38.832Z,99868.70
2018-10-03T02:30:09.712Z,99890.57
2018-10-03T02:32:40.715Z,99874.66
2018-10-03T02:35:11.550Z,99870.73
2018-10-03T02:37:42.649Z,99874.72
2018-10-03T02:40:13.558Z,99872.05
2018-10-03T02:42:45.007Z,99862.39
2018-10-03T02:45:19.721Z,99857.80
2018-10-03T02:47:51.039Z,99861.55
2018-10-03T02:50:21.238Z,99862.59
2018-10-03T02:52:51.692Z,99861.44
2018-10-03T02:55:21.510Z,99872.70
2018-10-03T02:57:51.551Z,99874.86
2018-10-03T03:00:21.675Z,99870.25
2018-10-03T03:02:52.388Z,99879.70
2018-10-03T03:05:22.856Z,99865.20
2018-10-03T03:07:53.519Z,99863.54
2018-10-03T03:10:24.448Z,99872.61
2018-10-03T03:12:55.757Z,99868.95
2018-10-03T03:15:26.695Z,99871.82
2018-10-03T03:17:57.739Z,99873.51
2018-10-03T03:20:28.516Z,99860.25
2018-10-03T03:22:59.307Z,99879.42
2018-10-03T03:25:31.730Z,99875.42
2018-10-03T03:28:01.499Z,99874.47
2018-10-03T03:30:32.910Z,99878.44
2018-10-03T03:33:03.625Z,99879.87
2018-10-03T03:35:34.581Z,99877.73
2018-10-03T03:38:05.329Z,99878.05
2018-10-03T03:40:36.990Z,99880.35
2018-10-03T03:43:07.471Z,99878.38
2018-10-03T03:45:38.490Z,99873.77
2018-10-03T03:48:09.271Z,99861.73
2018-10-03T03:50:40.818Z,99865.88
2018-10-03T03:53:11.567Z,99851.15
2018-10-03T03:55:42.450Z,99861.31
2018-10-03T03:58:13.639Z,99863.08
2018-10-03T04:00:44.596Z,99872.02
2018-10-03T04:03:15.366Z,99864.58
2018-10-03T04:05:46.759Z,99859.09
2018-10-03T04:08:17.662Z,99855.07
2018-10-03T04:10:48.526Z,99869.99
2018-10-03T04:13:19.334Z,99848.45
2018-10-03T04:15:50.891Z,99857.86
2018-10-03T04:18:21.488Z,99851.68
2018-10-03T04:20:52.902Z,99863.98
2018-10-03T04:23:23.523Z,99857.52
2018-10-03T04:25:54.550Z,99862.36
2018-10-03T04:28:25.339Z,99859.86
2018-10-03T04:30:56.661Z,99858.58
2018-10-03T04:33:27.543Z,99864.52
2018-10-03T04:35:58.406Z,99852.31
2018-10-03T04:38:29.789Z,99858.59
2018-10-03T04:41:00.777Z,99880.45
2018-10-03T04:43:31.536Z,99864.90
2018-10-03T04:46:02.451Z,99879.30
2018-10-03T04:48:33.298Z,99868.88
2018-10-03T04:51:04.746Z,99880.75
2018-10-03T04:53:35.726Z,99888.43
2018-10-03T04:56:06.808Z,99883.78
2018-10-03T04:58:38.070Z,99881.50
2018-10-03T05:01:11.071Z,99891.39
2018-10-03T05:03:41.471Z,99890.30
2018-10-03T05:06:13.166Z,99901.19
2018-10-03T05:08:43.361Z,99895.53
2018-10-03T05:11:13.116Z,99901.80
2018-10-03T05:13:45.829Z,99915.98
2018-10-03T05:16:15.651Z,99905.67
2018-10-03T05:18:45.574Z,99910.32
2018-10-03T05:21:16.964Z,99902.69
2018-10-03T05:23:48.193Z,99920.53
2018-10-03T05:26:18.767Z,99916.30
2018-10-03T05:28:50.140Z,99929.96
2018-10-03T05:31:20.614Z,99941.73
2018-10-03T05:33:52.673Z,99930.91
2018-10-03T05:36:23.107Z,99944.34
2018-10-03T05:38:53.792Z,99948.99
2018-10-03T05:41:24.578Z,99947.33
2018-10-03T05:43:55.405Z,99952.95
2018-10-03T05:46:26.590Z,99956.25
2018-10-03T05:48:57.602Z,99952.02
2018-10-03T05:51:28.374Z,99953.51
2018-10-03T05:53:59.895Z,99963.98
2018-10-03T05:56:30.873Z,99951.95
2018-10-03T05:59:01.822Z,99943.26
2018-10-03T06:01:32.655Z,99941.80
2018-10-03T06:04:05.020Z,99952.62
2018-10-03T06:06:34.830Z,99954.72
2018-10-03T06:09:08.137Z,99950.64
2018-10-03T06:11:38.729Z,99964.73
2018-10-03T06:14:08.805Z,99966.11
2018-10-03T06:16:38.936Z,99966.73
2018-10-03T06:19:09.756Z,99863.31
2018-10-03T06:21:40.803Z,99987.80
2018-10-03T06:24:11.813Z,99987.63
2018-10-03T06:26:42.637Z,99978.03
2018-10-03T06:29:13.753Z,99995.25
2018-10-03T06:31:44.590Z,99981.66
2018-10-03T06:34:15.961Z,99995.89
2018-10-03T06:36:47.342Z,99985.35
2018-10-03T06:39:17.796Z,99994.28
2018-10-03T06:41:48.562Z,99978.98
2018-10-03T06:44:19.510Z,99995.61
2018-10-03T06:46:51.101Z,99995.03
2018-10-03T06:49:21.862Z,99999.70
2018-10-03T06:51:52.618Z,99994.79
2018-10-03T06:54:23.498Z,100007.25
2018-10-03T06:56:54.342Z,100002.42
2018-10-03T06:59:26.530Z,99992.52
2018-10-03T07:01:56.391Z,100007.37
2018-10-03T07:04:27.937Z,100002.19
2018-10-03T07:06:58.871Z,100006.91
2018-10-03T07:09:29.940Z,100004.29
2018-10-03T07:12:00.680Z,99999.57
2018-10-03T07:14:31.976Z,99976.88
2018-10-03T07:17:02.792Z,99997.52
2018-10-03T07:19:33.896Z,99994.02
2018-10-03T07:22:05.505Z,99976.08
2018-10-03T07:24:35.701Z,99997.65
2018-10-03T07:27:06.612Z,100002.80
2018-10-03T07:29:37.588Z,99984.57
2018-10-03T07:32:08.448Z,100006.61
2018-10-03T07:34:39.950Z,100018.56
2018-10-03T07:37:10.629Z,100003.32
2018-10-03T07:39:41.634Z,100000.69
2018-10-03T07:42:12.442Z,100005.98
2018-10-03T07:44:43.793Z,100003.83
2018-10-03T07:47:14.602Z,100009.48
2018-10-03T07:49:45.599Z,100013.47
2018-10-03T07:52:16.640Z,100001.52
2018-10-03T07:54:47.633Z,100007.16
2018-10-03T07:57:18.449Z,100017.80
2018-10-03T07:59:49.466Z,100008.17
2018-10-03T08:02:20.382Z,100020.79
2018-10-03T08:04:51.816Z,100022.12
2018-10-03T08:07:22.646Z,100026.09
2018-10-03T08:09:53.822Z,100029.08
2018-10-03T08:12:24.582Z,100047.00
2018-10-03T08:14:55.579Z,100037.52
2018-10-03T08:17:26.448Z,100043.16
2018-10-03T08:19:57.829Z,100032.20
2018-10-03T08:22:28.893Z,100051.14
2018-10-03T08:25:00.001Z,100033.38
2018-10-03T08:27:31.077Z,100041.70
2018-10-03T08:30:01.935Z,100075.89
2018-10-03T08:32:32.690Z,100045.01
2018-10-03T08:35:03.906Z,100088.48
2018-10-03T08:37:34.626Z,100035.02
2018-10-03T08:40:05.825Z,100060.28
2018-10-03T08:42:36.745Z,100060.29
2018-10-03T08:45:07.816Z,100046.50
2018-10-03T08:47:39.257Z,100066.42
2018-10-03T08:50:11.971Z,100074.63
2018-10-03T08:52:42.487Z,100061.34
2018-10-03T08:55:12.478Z,100060.84
2018-10-03T08:57:42.804Z,100081.12
2018-10-03T09:00:13.755Z,100065.84
2018-10-03T09:02:44.682Z,100060.86
2018-10-03T09:05:15.588Z,100061.67
2018-10-03T09:07:46.456Z,100044.06
2018-10-03T09:10:17.637Z,100070.31
2018-10-03T09:12:48.498Z,100060.68
2018-10-03T09:15:19.918Z,100054.70
2018-10-03T09:17:50.651Z,100067.98
2018-10-03T09:20:21.617Z,100057.03
2018-10-03T09:22:52.478Z,100068.17
2018-10-03T09:25:24.068Z,100068.66
2018-10-03T09:27:54.696Z,100080.13
2018-10-03T09:30:25.694Z,100079.80
2018-10-03T09:32:56.509Z,100089.25
2018-10-03T09:35:28.001Z,100082.60
2018-10-03T09:37:59.029Z,100107.71
2018-10-03T09:40:29.742Z,100059.52
2018-10-03T09:43:00.570Z,100061.63
2018-10-03T09:45:31.813Z,100085.55
2018-10-03T09:48:03.615Z,100083.86
2018-10-03T09:50:33.565Z,100089.78
2018-10-03T09:53:04.412Z,100066.66
2018-10-03T09:55:35.927Z,100093.47
2018-10-03T09:58:06.734Z,100102.58
2018-10-03T10:00:42.657Z,100083.77
2018-10-03T10:03:12.648Z,100090.84
2018-10-03T10:05:42.610Z,100114.80
2018-10-03T10:08:12.515Z,100120.79
2018-10-03T10:10:42.585Z,100112.49
2018-10-03T10:13:12.526Z,100124.13
2018-10-03T10:15:47.762Z,100107.83
2018-10-03T10:18:17.858Z,100106.83
2018-10-03T10:20:47.848Z,100124.95
2018-10-03T10:23:18.074Z,100140.44
2018-10-03T10:25:48.151Z,100141.09
2018-10-03T10:28:19.268Z,100123.31
2018-10-03T10:30:50.119Z,100134.28
2018-10-03T10:33:20.923Z,100143.92
2018-10-03T10:35:51.989Z,100142.08
2018-10-03T10:38:22.756Z,100145.39
2018-10-03T10:40:54.093Z,100180.59
2018-10-03T10:43:25.174Z,100173.52
2018-10-03T10:45:56.005Z,100155.80
2018-10-03T10:48:26.713Z,100184.78
2018-10-03T10:50:57.716Z,100190.36
2018-10-03T10:53:28.582Z,100167.47
2018-10-03T10:55:59.543Z,100171.39
2018-10-03T10:58:30.490Z,100177.81
2018-10-03T11:01:01.906Z,100161.31
2018-10-03T11:03:32.792Z,100163.55
2018-10-03T11:06:04.048Z,100167.86
2018-10-03T11:08:34.542Z,100163.02
2018-10-03T11:11:05.456Z,100164.53
2018-10-03T11:13:36.340Z,100166.70
2018-10-03T11:16:08.381Z,100167.46
2018-10-03T11:18:38.683Z,100168.91
2018-10-03T11:21:09.582Z,100178.59
2018-10-03T11:23:40.696Z,100158.98
2018-10-03T11:26:11.713Z,100163.48
2018-10-03T11:28:42.523Z,100188.61
2018-10-03T11:31:13.735Z,100169.32
2018-10-03T11:33:44.543Z,100152.27
2018-10-03T11:36:16.052Z,100160.63
2018-10-03T11:38:46.584Z,100163.45
2018-10-03T11:41:17.633Z,100163.33
2018-10-03T11:43:50.214Z,100167.50
2018-10-03T11:46:20.942Z,100173.99
2018-10-03T11:48:52.893Z,100170.34
2018-10-03T11:51:23.543Z,100173.67
2018-10-03T11:53:56.658Z,100179.67
2018-10-03T11:56:27.078Z,100171.66
2018-10-03T11:58:57.687Z,100186.63
2018-10-03T12:01:27.854Z,100202.23
2018-10-03T12:03:57.809Z,100172.44
2018-10-03T12:06:28.104Z,100169.92
2018-10-03T12:08:58.690Z,100173.92
2018-10-03T12:11:30.115Z,100192.74
2018-10-03T12:14:01.164Z,100159.53
2018-10-03T12:16:31.865Z,100172.87
2018-10-03T12:19:02.769Z,100173.66
2018-10-03T12:21:33.642Z,100173.45
2018-10-03T12:24:04.754Z,100165.19
2018-10-03T12:26:35.872Z,100174.62
2018-10-03T12:29:06.904Z,100179.90
2018-10-03T12:31:37.685Z,100165.77
2018-10-03T12:34:08.725Z,100176.81
2018-10-03T12:36:39.793Z,100197.33
2018-10-03T12:39:11.315Z,100179.13
2018-10-03T12:41:41.922Z,100194.29
2018-10-03T12:44:12.813Z,100175.30
2018-10-03T12:46:43.732Z,100169.37
2018-10-03T12:49:14.638Z,100190.02
2018-10-03T12:51:45.567Z,100176.80
2018-10-03T12:54:16.600Z,100217.77
2018-10-03T12:56:47.490Z,100205.02
2018-10-03T12:59:18.853Z,100231.81
2018-10-03T13:01:49.761Z,100255.64
2018-10-03T13:04:20.708Z,100261.81
2018-10-03T13:06:51.809Z,100286.53
2018-10-03T13:09:22.856Z,100299.88
2018-10-03T13:11:53.884Z,100304.63
2018-10-03T13:14:24.891Z,100299.80
2018-10-03T13:16:55.794Z,100285.98
2018-10-03T13:19:26.822Z,100289.36
2018-10-03T13:22:02.908Z,100290.39
2018-10-03T13:24:32.940Z,100288.88
2018-10-03T13:27:03.468Z,100294.95
2018-10-03T13:29:33.536Z,100283.08
2018-10-03T13:32:03.525Z,100292.55
2018-10-03T13:34:33.509Z,100299.43
2018-10-03T13:37:03.732Z,100297.38
2018-10-03T13:39:34.586Z,100299.60
2018-10-03T13:42:05.589Z,100304.14
2018-10-03T13:44:36.429Z,100301.36
2018-10-03T13:47:07.534Z,100302.08
2018-10-03T13:49:38.441Z,100305.94
2018-10-03T13:52:09.763Z,100327.42
2018-10-03T13:54:41.325Z,100356.48
2018-10-03T13:57:12.871Z,100337.34
2018-10-03T13:59:42.884Z,100345.65
2018-10-03T14:02:13.748Z,100343.13
2018-10-03T14:04:44.533Z,100330.50
2018-10-03T14:07:15.718Z,100341.70
2018-10-03T14:09:46.794Z,100342.97
2018-10-03T14:12:17.719Z,100333.05
2018-10-03T14:14:48.544Z,100331.02
2018-10-03T14:17:19.774Z,100336.98
2018-10-03T14:19:50.590Z,100331.91
2018-10-03T14:22:21.690Z,100351.05
2018-10-03T14:24:58.576Z,100349.95
2018-10-03T14:27:28.560Z,100372.36
2018-10-03T14:29:58.477Z,100390.03
2018-10-03T14:32:28.525Z,100382.97
2018-10-03T14:34:58.403Z,100382.78
2018-10-03T14:37:28.360Z,100389.63
2018-10-03T14:39:59.480Z,100396.93
2018-10-03T14:42:29.340Z,100405.41
2018-10-03T14:45:00.701Z,100405.41
2018-10-03T14:47:31.527Z,100414.20
2018-10-03T14:50:02.775Z,100422.08
2018-10-03T14:52:33.725Z,100436.23
2018-10-03T14:55:04.866Z,100432.98
2018-10-03T14:57:35.829Z,100444.80
2018-10-03T15:00:07.581Z,100448.48
2018-10-03T15:02:37.646Z,100445.06
2018-10-03T15:05:09.324Z,100442.28
2018-10-03T15:07:40.740Z,100419.25
2018-10-03T15:10:11.080Z,100441.90
2018-10-03T15:12:41.710Z,100451.17
2018-10-03T15:15:12.637Z,100446.83
2018-10-03T15:17:43.456Z,100460.84
2018-10-03T15:20:14.525Z,100456.50
2018-10-03T15:22:45.433Z,100474.52
2018-10-03T15:25:16.443Z,100457.00
2018-10-03T15:27:54.249Z,100471.81
2018-10-03T15:30:24.697Z,100474.86
2018-10-03T15:32:54.725Z,100469.39
2018-10-03T15:35:24.640Z,100482.65
2018-10-03T15:37:54.755Z,100485.80
2018-10-03T15:40:24.586Z,100485.48
2018-10-03T15:42:54.564Z,100490.06
2018-10-03T15:45:24.981Z,100491.22
2018-10-03T15:47:55.495Z,100498.27
2018-10-03T15:50:26.543Z,100498.67
2018-10-03T15:52:57.594Z,100510.45
2018-10-03T15:55:28.537Z,100513.94
2018-10-03T15:58:00.639Z,100519.50
2018-10-03T16:00:30.537Z,100525.09
2018-10-03T16:03:01.729Z,100530.98
2018-10-03T16:05:32.545Z,100542.01
2018-10-03T16:08:03.652Z,100553.23
2018-10-03T16:10:34.441Z,100569.94
2018-10-03T16:13:05.722Z,100564.45
2018-10-03T16:15:36.589Z,100567.64
2018-10-03T16:18:07.760Z,100568.25
2018-10-03T16:20:38.442Z,100565.77
2018-10-03T16:23:08.479Z,100570.92
2018-10-03T16:25:39.228Z,100572.16
2018-10-03T16:28:10.993Z,100591.62
2018-10-03T16:30:41.831Z,100593.45
2018-10-03T16:33:12.773Z,100586.00
2018-10-03T16:35:43.503Z,100590.52
2018-10-03T16:38:14.649Z,100561.96
2018-10-03T16:40:46.061Z,100591.20
2018-10-03T16:43:17.175Z,100589.82
2018-10-03T16:45:47.572Z,100565.78
2018-10-03T16:48:19.087Z,100583.83
2018-10-03T16:50:49.643Z,100583.56
2018-10-03T16:53:20.669Z,100606.72
2018-10-03T16:55:51.434Z,100612.30
2018-10-03T16:58:23.199Z,100619.12
2018-10-03T17:00:53.657Z,100620.09
2018-10-03T17:03:24.985Z,100624.70
2018-10-03T17:05:55.560Z,100635.30
2018-10-03T17:08:26.434Z,100641.91
2018-10-03T17:10:58.183Z,100642.47
2018-10-03T17:13:28.805Z,100649.29
2018-10-03T17:15:59.589Z,100654.47
2018-10-03T17:18:30.474Z,100654.53
2018-10-03T17:21:01.655Z,100664.09
2018-10-03T17:23:32.579Z,100670.43
2018-10-03T17:26:03.336Z,100674.45
2018-10-03T17:28:34.707Z,100677.33
2018-10-03T17:31:05.543Z,100684.18
2018-10-03T17:33:36.519Z,100684.36
2018-10-03T17:36:07.355Z,100669.91
2018-10-03T17:38:38.887Z,100692.11
2018-10-03T17:41:09.725Z,100680.66
2018-10-03T17:43:40.755Z,100704.38
2018-10-03T17:46:11.520Z,100701.23
2018-10-03T17:48:42.484Z,100706.64
2018-10-03T17:51:13.569Z,100711.67
2018-10-03T17:53:44.550Z,100719.61
2018-10-03T17:56:15.779Z,100723.62
2018-10-03T17:58:46.811Z,100735.55
2018-10-03T18:01:17.707Z,100746.41
2018-10-03T18:03:48.760Z,100753.53
2018-10-03T18:06:19.869Z,100762.13
2018-10-03T18:08:51.113Z,100769.95
2018-10-03T18:11:21.785Z,100769.45
2018-10-03T18:13:52.923Z,100771.55
2018-10-03T18:16:23.825Z,100762.30
2018-10-03T18:18:54.793Z,100777.37
2018-10-03T18:21:26.801Z,100782.16
2018-10-03T18:23:56.861Z,100782.34
2018-10-03T18:26:27.678Z,100789.98
2018-10-03T18:29:00.611Z,100790.19
2018-10-03T18:31:30.720Z,100792.11
2018-10-03T18:34:00.719Z,100794.61
2018-10-03T18:47:03.683Z,100802.16
2018-10-03T18:49:33.776Z,100807.14
2018-10-03T18:52:03.728Z,100803.22
2018-10-03T18:54:33.723Z,100806.93
2018-10-03T18:57:03.597Z,100811.34
2018-10-03T18:59:33.739Z,100817.80
2018-10-03T19:02:03.753Z,100819.13
2018-10-03T19:04:33.961Z,100818.06
2018-10-03T19:07:04.122Z,100827.83
2018-10-03T19:09:39.275Z,100841.94
2018-10-03T19:12:09.542Z,100842.55
2018-10-03T19:14:40.382Z,100846.53
2018-10-03T19:17:10.865Z,100842.56
2018-10-03T19:19:40.793Z,100852.33
2018-10-03T19:22:10.976Z,100854.12
2018-10-03T19:24:40.823Z,100851.98
2018-10-03T19:27:10.585Z,100861.11
2018-10-03T19:29:41.719Z,100859.33
2018-10-03T19:32:11.798Z,100871.59
2018-10-03T19:34:41.837Z,100871.46
2018-10-03T19:37:11.986Z,100878.30
2018-10-03T19:39:41.924Z,100879.14
2018-10-03T19:42:11.866Z,100879.14
2018-10-03T19:44:41.812Z,100879.97
2018-10-03T19:47:11.715Z,100883.38
2018-10-03T19:49:41.676Z,100871.59
2018-10-03T19:52:11.774Z,100887.09
2018-10-03T19:54:41.692Z,100892.03
2018-10-03T19:57:11.991Z,100905.87
2018-10-03T19:59:42.071Z,100910.56
2018-10-03T20:02:11.785Z,100905.16
2018-10-03T20:04:41.643Z,100908.67
2018-10-03T20:07:11.663Z,100917.58
2018-10-03T20:09:41.554Z,100917.80
2018-10-03T20:12:11.757Z,100907.36
2018-10-03T20:14:41.543Z,100926.70
2018-10-03T20:17:11.779Z,100925.73
2018-10-03T20:19:41.861Z,100908.36
2018-10-03T20:22:12.313Z,100925.16
2018-10-03T20:24:42.666Z,100924.69
2018-10-03T20:27:13.219Z,100928.77
2018-10-03T20:29:43.244Z,100932.37
2018-10-03T20:32:13.361Z,100932.27
2018-10-03T20:34:43.474Z,100933.23
2018-10-03T20:37:13.742Z,100849.38
2018-10-03T20:39:43.762Z,100934.45
2018-10-03T20:42:13.795Z,100930.48
2018-10-03T20:44:43.583Z,100929.77
2018-10-03T20:47:13.881Z,100929.77
2018-10-03T20:49:43.836Z,100933.88
2018-10-03T20:52:13.749Z,100936.98
2018-10-03T20:54:43.687Z,100938.20
2018-10-03T20:57:13.566Z,100945.52
2018-10-03T20:59:43.642Z,100941.09
2018-10-03T21:02:13.691Z,100938.80
2018-10-03T21:04:43.600Z,100942.41
2018-10-03T21:07:13.752Z,100943.98
2018-10-03T21:09:43.765Z,100945.30
2018-10-03T21:12:13.810Z,100951.55
2018-10-03T21:14:43.726Z,100952.41
2018-10-03T21:17:13.557Z,100957.69
2018-10-03T21:19:43.729Z,100949.39
2018-10-03T21:22:13.935Z,100945.45
2018-10-03T21:24:43.802Z,100950.36
2018-10-03T21:27:13.599Z,100952.89
2018-10-03T21:29:43.615Z,100950.25
2018-10-03T21:32:13.887Z,100949.18
2018-10-03T21:34:43.729Z,100953.50
2018-10-03T21:37:14.207Z,100950.72
2018-10-03T21:39:44.273Z,100949.04
2018-10-03T21:42:14.399Z,100951.69
2018-10-03T21:44:44.585Z,100948.32
2018-10-03T21:47:14.505Z,100948.92
2018-10-03T21:49:44.718Z,100918.06
2018-10-03T21:52:14.747Z,100950.02
2018-10-03T21:54:44.573Z,100950.98
2018-10-03T21:57:14.679Z,100954.83
2018-10-03T21:59:44.514Z,100956.87
2018-10-03T22:02:14.684Z,100954.11
2018-10-03T22:04:44.655Z,100955.17
2018-10-03T22:07:14.574Z,100952.41
2018-10-03T22:09:44.605Z,100950.88
2018-10-03T22:12:14.569Z,100948.11
2018-10-03T22:14:44.572Z,100947.03
2018-10-03T22:17:19.514Z,100952.20
2018-10-03T22:19:49.648Z,100950.38
2018-10-03T22:22:19.566Z,100949.89
2018-10-03T22:24:49.850Z,100950.63
2018-10-03T22:27:19.865Z,100953.98
2018-10-03T22:29:49.641Z,100950.75
2018-10-03T22:32:19.546Z,100956.03
2018-10-03T22:34:49.546Z,100937.05
2018-10-03T22:37:19.438Z,100953.86
2018-10-03T22:39:49.775Z,100948.70
2018-10-03T22:42:19.628Z,100964.31
2018-10-03T22:44:49.544Z,100959.99
2018-10-03T22:47:19.606Z,100932.25
2018-10-03T22:49:49.486Z,100959.25
2018-10-03T22:52:19.646Z,100961.79
2018-10-03T22:54:49.491Z,100963.33
2018-10-03T22:57:19.596Z,100970.44
2018-10-03T22:59:49.587Z,100968.25
2018-10-03T23:02:19.494Z,100969.58
2018-10-03T23:04:49.509Z,100978.45
2018-10-03T23:07:19.545Z,100984.00
2018-10-03T23:09:49.509Z,100984.22
2018-10-03T23:12:19.577Z,100981.23
2018-10-03T23:14:49.485Z,100982.91
2018-10-03T23:17:19.568Z,100983.74
2018-10-03T23:19:49.457Z,100990.94
2018-10-03T23:22:19.704Z,100992.16
2018-10-03T23:24:49.566Z,100990.94
2018-10-03T23:27:19.559Z,100992.25
2018-10-03T23:29:49.593Z,101003.31
2018-10-03T23:32:19.465Z,101009.78
2018-10-03T23:34:49.705Z,100990.66
2018-10-03T23:37:19.460Z,101009.66
2018-10-03T23:39:49.614Z,101011.80
2018-10-03T23:42:19.487Z,101017.08
2018-10-03T23:44:49.481Z,101021.17
2018-10-03T23:47:19.604Z,100988.95
2018-10-03T23:49:49.388Z,101023.69
2018-10-03T23:52:19.489Z,101028.24
2018-10-03T23:54:49.306Z,101024.52
2018-10-03T23:57:22.467Z,101024.65
2018-10-03T23:59:52.874Z,101028.61
